sensor_id;sensor_type;location;lat;lon;timestamp;temperature;humidity
27781;DHT22;15167;1.318;103.762;2023-02-01T00:00:20;23.60;99.90
27781;DHT22;15167;1.318;103.762;2023-02-01T00:02:46;23.70;99.90
27781;DHT22;15167;1.318;103.762;2023-02-01T00:05:13;23.80;99.90
27781;DHT22;15167;1.318;103.762;2023-02-01T00:07:39;23.80;99.90
27781;DHT22;15167;1.318;103.762;2023-02-01T00:10:05;23.80;99.90
27781;DHT22;15167;1.318;103.762;2023-02-01T00:12:32;23.80;99.90
27781;DHT22;15167;1.318;103.762;2023-02-01T00:14:58;23.90;99.90
27781;DHT22;15167;1.318;103.762;2023-02-01T00:17:24;23.90;99.90
27781;DHT22;15167;1.318;103.762;2023-02-01T00:19:50;23.90;99.90
27781;DHT22;15167;1.318;103.762;2023-02-01T00:22:16;24.00;99.90
27781;DHT22;15167;1.318;103.762;2023-02-01T00:24:42;23.90;99.90
27781;DHT22;15167;1.318;103.762;2023-02-01T00:27:08;24.00;99.90
27781;DHT22;15167;1.318;103.762;2023-02-01T00:29:34;24.10;99.90
27781;DHT22;15167;1.318;103.762;2023-02-01T00:32:00;24.10;99.90
27781;DHT22;15167;1.318;103.762;2023-02-01T00:34:27;23.60;99.90
27781;DHT22;15167;1.318;103.762;2023-02-01T00:36:53;24.10;99.90
27781;DHT22;15167;1.318;103.762;2023-02-01T00:39:19;24.20;99.90
27781;DHT22;15167;1.318;103.762;2023-02-01T00:41:45;24.20;99.90
27781;DHT22;15167;1.318;103.762;2023-02-01T00:44:11;24.20;99.90
27781;DHT22;15167;1.318;103.762;2023-02-01T00:46:37;24.30;99.90
27781;DHT22;15167;1.318;103.762;2023-02-01T00:49:03;24.30;99.90
27781;DHT22;15167;1.318;103.762;2023-02-01T00:51:31;24.30;99.90
27781;DHT22;15167;1.318;103.762;2023-02-01T00:53:57;24.40;99.90
27781;DHT22;15167;1.318;103.762;2023-02-01T00:56:23;24.40;99.90
27781;DHT22;15167;1.318;103.762;2023-02-01T00:58:49;24.40;99.90
27781;DHT22;15167;1.318;103.762;2023-02-01T01:01:17;24.50;99.90
27781;DHT22;15167;1.318;103.762;2023-02-01T01:03:47;24.50;99.90
27781;DHT22;15167;1.318;103.762;2023-02-01T01:06:15;24.60;99.90
27781;DHT22;15167;1.318;103.762;2023-02-01T01:08:41;24.60;99.90
27781;DHT22;15167;1.318;103.762;2023-02-01T01:11:09;24.60;99.90
27781;DHT22;15167;1.318;103.762;2023-02-01T01:13:35;24.70;99.90
27781;DHT22;15167;1.318;103.762;2023-02-01T01:16:03;24.70;99.90
27781;DHT22;15167;1.318;103.762;2023-02-01T01:18:30;24.80;99.90
27781;DHT22;15167;1.318;103.762;2023-02-01T01:20:56;24.90;99.90
27781;DHT22;15167;1.318;103.762;2023-02-01T01:23:23;25.00;99.90
27781;DHT22;15167;1.318;103.762;2023-02-01T01:25:49;25.00;99.90
27781;DHT22;15167;1.318;103.762;2023-02-01T01:28:15;25.10;99.90
27781;DHT22;15167;1.318;103.762;2023-02-01T01:30:41;25.10;99.90
27781;DHT22;15167;1.318;103.762;2023-02-01T01:33:07;25.10;99.90
27781;DHT22;15167;1.318;103.762;2023-02-01T01:35:34;25.20;99.90
27781;DHT22;15167;1.318;103.762;2023-02-01T01:38:00;25.20;99.90
27781;DHT22;15167;1.318;103.762;2023-02-01T01:40:27;25.20;99.90
27781;DHT22;15167;1.318;103.762;2023-02-01T01:42:53;25.40;99.90
27781;DHT22;15167;1.318;103.762;2023-02-01T01:47:48;25.50;99.90
27781;DHT22;15167;1.318;103.762;2023-02-01T01:50:16;25.50;99.90
27781;DHT22;15167;1.318;103.762;2023-02-01T01:52:43;25.50;99.90
27781;DHT22;15167;1.318;103.762;2023-02-01T01:55:13;25.50;99.90
27781;DHT22;15167;1.318;103.762;2023-02-01T01:57:40;25.60;99.90
27781;DHT22;15167;1.318;103.762;2023-02-01T02:00:11;25.60;99.90
27781;DHT22;15167;1.318;103.762;2023-02-01T02:02:38;25.70;99.90
27781;DHT22;15167;1.318;103.762;2023-02-01T02:05:05;25.70;99.90
27781;DHT22;15167;1.318;103.762;2023-02-01T02:07:36;25.80;99.90
27781;DHT22;15167;1.318;103.762;2023-02-01T02:10:07;25.80;99.90
27781;DHT22;15167;1.318;103.762;2023-02-01T02:12:39;25.90;99.90
27781;DHT22;15167;1.318;103.762;2023-02-01T02:15:07;25.90;99.90
27781;DHT22;15167;1.318;103.762;2023-02-01T02:17:40;25.80;99.90
27781;DHT22;15167;1.318;103.762;2023-02-01T02:25:45;25.70;99.90
27781;DHT22;15167;1.318;103.762;2023-02-01T02:38:18;26.00;99.90
27781;DHT22;15167;1.318;103.762;2023-02-01T02:40:48;26.00;99.90
27781;DHT22;15167;1.318;103.762;2023-02-01T02:43:18;26.00;99.90
27781;DHT22;15167;1.318;103.762;2023-02-01T02:46:07;26.10;99.90
27781;DHT22;15167;1.318;103.762;2023-02-01T02:49:01;26.10;99.90
27781;DHT22;15167;1.318;103.762;2023-02-01T02:52:04;26.10;99.90
27781;DHT22;15167;1.318;103.762;2023-02-01T02:54:41;26.10;99.90
27781;DHT22;15167;1.318;103.762;2023-02-01T02:57:14;26.20;99.90
27781;DHT22;15167;1.318;103.762;2023-02-01T03:00:00;26.30;1.00
27781;DHT22;15167;1.318;103.762;2023-02-01T03:02:46;26.40;99.90
27781;DHT22;15167;1.318;103.762;2023-02-01T03:05:34;26.50;99.90
27781;DHT22;15167;1.318;103.762;2023-02-01T03:08:02;26.30;99.90
27781;DHT22;15167;1.318;103.762;2023-02-01T03:10:31;26.30;99.90
27781;DHT22;15167;1.318;103.762;2023-02-01T03:13:00;26.30;99.90
27781;DHT22;15167;1.318;103.762;2023-02-01T03:15:38;26.10;99.90
27781;DHT22;15167;1.318;103.762;2023-02-01T03:18:07;26.10;99.90
27781;DHT22;15167;1.318;103.762;2023-02-01T03:20:36;26.10;99.90
27781;DHT22;15167;1.318;103.762;2023-02-01T03:23:03;26.30;99.90
27781;DHT22;15167;1.318;103.762;2023-02-01T03:25:32;26.40;99.90
27781;DHT22;15167;1.318;103.762;2023-02-01T03:28:02;26.40;99.90
27781;DHT22;15167;1.318;103.762;2023-02-01T03:30:47;26.40;99.90
27781;DHT22;15167;1.318;103.762;2023-02-01T03:33:19;26.40;99.90
27781;DHT22;15167;1.318;103.762;2023-02-01T03:36:00;26.40;99.90
27781;DHT22;15167;1.318;103.762;2023-02-01T03:41:25;26.60;99.90
27781;DHT22;15167;1.318;103.762;2023-02-01T03:44:12;26.60;99.90
27781;DHT22;15167;1.318;103.762;2023-02-01T03:47:25;26.50;99.90
27781;DHT22;15167;1.318;103.762;2023-02-01T03:49:30;26.70;99.90
27781;DHT22;15167;1.318;103.762;2023-02-01T03:51:58;26.90;99.90
27781;DHT22;15167;1.318;103.762;2023-02-01T03:54:27;27.00;99.90
27781;DHT22;15167;1.318;103.762;2023-02-01T03:56:55;26.90;11.10
27781;DHT22;15167;1.318;103.762;2023-02-01T03:59:22;26.90;21.30
27781;DHT22;15167;1.318;103.762;2023-02-01T04:01:49;27.10;1.00
27781;DHT22;15167;1.318;103.762;2023-02-01T04:04:16;27.20;1.00
27781;DHT22;15167;1.318;103.762;2023-02-01T04:06:48;27.20;99.90
27781;DHT22;15167;1.318;103.762;2023-02-01T04:09:15;27.10;1.00
27781;DHT22;15167;1.318;103.762;2023-02-01T04:11:41;26.90;1.00
27781;DHT22;15167;1.318;103.762;2023-02-01T04:14:07;26.90;1.00
27781;DHT22;15167;1.318;103.762;2023-02-01T04:16:33;26.90;1.00
27781;DHT22;15167;1.318;103.762;2023-02-01T04:19:00;27.00;1.00
27781;DHT22;15167;1.318;103.762;2023-02-01T04:21:26;27.10;99.90
27781;DHT22;15167;1.318;103.762;2023-02-01T04:23:52;27.20;99.90
27781;DHT22;15167;1.318;103.762;2023-02-01T04:26:19;27.20;99.90
27781;DHT22;15167;1.318;103.762;2023-02-01T04:28:46;27.30;99.90
27781;DHT22;15167;1.318;103.762;2023-02-01T04:31:15;27.40;99.90
27781;DHT22;15167;1.318;103.762;2023-02-01T04:33:41;27.40;99.90
27781;DHT22;15167;1.318;103.762;2023-02-01T04:36:08;27.30;99.90
27781;DHT22;15167;1.318;103.762;2023-02-01T04:38:34;27.40;99.90
27781;DHT22;15167;1.318;103.762;2023-02-01T04:41:01;27.30;99.90
27781;DHT22;15167;1.318;103.762;2023-02-01T04:43:27;27.30;99.90
27781;DHT22;15167;1.318;103.762;2023-02-01T04:45:53;27.40;99.90
27781;DHT22;15167;1.318;103.762;2023-02-01T04:48:19;27.40;99.90
27781;DHT22;15167;1.318;103.762;2023-02-01T04:50:46;27.30;99.90
27781;DHT22;15167;1.318;103.762;2023-02-01T04:53:15;27.30;99.90
27781;DHT22;15167;1.318;103.762;2023-02-01T04:55:42;27.40;99.90
27781;DHT22;15167;1.318;103.762;2023-02-01T04:58:08;27.50;99.90
27781;DHT22;15167;1.318;103.762;2023-02-01T05:00:35;27.40;99.90
27781;DHT22;15167;1.318;103.762;2023-02-01T05:03:01;27.40;99.90
27781;DHT22;15167;1.318;103.762;2023-02-01T05:05:27;27.40;99.90
27781;DHT22;15167;1.318;103.762;2023-02-01T05:07:53;27.40;99.90
27781;DHT22;15167;1.318;103.762;2023-02-01T05:10:19;27.40;99.90
27781;DHT22;15167;1.318;103.762;2023-02-01T05:12:46;27.60;99.90
27781;DHT22;15167;1.318;103.762;2023-02-01T05:15:30;27.80;99.90
27781;DHT22;15167;1.318;103.762;2023-02-01T05:17:57;27.90;99.90
27781;DHT22;15167;1.318;103.762;2023-02-01T05:20:23;27.90;99.90
27781;DHT22;15167;1.318;103.762;2023-02-01T05:22:50;28.00;99.90
27781;DHT22;15167;1.318;103.762;2023-02-01T05:25:16;28.10;71.10
27781;DHT22;15167;1.318;103.762;2023-02-01T05:27:42;28.20;77.10
27781;DHT22;15167;1.318;103.762;2023-02-01T05:30:09;28.20;30.80
27781;DHT22;15167;1.318;103.762;2023-02-01T05:32:35;28.20;33.60
27781;DHT22;15167;1.318;103.762;2023-02-01T05:35:01;28.20;90.50
27781;DHT22;15167;1.318;103.762;2023-02-01T05:37:28;28.30;52.20
27781;DHT22;15167;1.318;103.762;2023-02-01T05:39:54;28.40;1.00
27781;DHT22;15167;1.318;103.762;2023-02-01T05:42:20;28.40;1.00
27781;DHT22;15167;1.318;103.762;2023-02-01T05:44:46;28.70;1.00
27781;DHT22;15167;1.318;103.762;2023-02-01T05:47:12;28.80;1.00
27781;DHT22;15167;1.318;103.762;2023-02-01T05:49:38;28.90;1.00
27781;DHT22;15167;1.318;103.762;2023-02-01T05:52:04;28.90;1.00
27781;DHT22;15167;1.318;103.762;2023-02-01T05:54:31;28.90;1.00
27781;DHT22;15167;1.318;103.762;2023-02-01T05:56:57;29.00;99.90
27781;DHT22;15167;1.318;103.762;2023-02-01T05:59:23;29.00;99.90
27781;DHT22;15167;1.318;103.762;2023-02-01T06:01:49;29.10;99.90
27781;DHT22;15167;1.318;103.762;2023-02-01T06:04:15;29.00;99.90
27781;DHT22;15167;1.318;103.762;2023-02-01T06:06:41;29.00;99.90
27781;DHT22;15167;1.318;103.762;2023-02-01T06:09:07;28.90;99.90
27781;DHT22;15167;1.318;103.762;2023-02-01T06:11:33;29.10;99.90
27781;DHT22;15167;1.318;103.762;2023-02-01T06:13:59;29.20;99.90
27781;DHT22;15167;1.318;103.762;2023-02-01T06:16:26;29.30;99.90
27781;DHT22;15167;1.318;103.762;2023-02-01T06:18:52;29.50;99.90
27781;DHT22;15167;1.318;103.762;2023-02-01T06:21:19;29.50;99.90
27781;DHT22;15167;1.318;103.762;2023-02-01T06:23:49;29.40;99.90
27781;DHT22;15167;1.318;103.762;2023-02-01T06:26:16;29.50;1.00
27781;DHT22;15167;1.318;103.762;2023-02-01T06:28:45;29.70;26.50
27781;DHT22;15167;1.318;103.762;2023-02-01T06:31:11;29.80;85.80
27781;DHT22;15167;1.318;103.762;2023-02-01T06:33:37;29.80;1.00
27781;DHT22;15167;1.318;103.762;2023-02-01T06:36:05;29.70;99.90
27781;DHT22;15167;1.318;103.762;2023-02-01T06:38:32;29.40;1.00
27781;DHT22;15167;1.318;103.762;2023-02-01T06:41:02;29.40;1.00
27781;DHT22;15167;1.318;103.762;2023-02-01T06:43:28;29.30;23.10
27781;DHT22;15167;1.318;103.762;2023-02-01T06:46:04;29.50;99.90
27781;DHT22;15167;1.318;103.762;2023-02-01T06:48:31;29.50;99.90
27781;DHT22;15167;1.318;103.762;2023-02-01T06:50:57;29.70;99.90
27781;DHT22;15167;1.318;103.762;2023-02-01T06:53:24;29.80;1.00
27781;DHT22;15167;1.318;103.762;2023-02-01T06:55:57;29.80;99.90
27781;DHT22;15167;1.318;103.762;2023-02-01T06:58:23;30.00;99.90
27781;DHT22;15167;1.318;103.762;2023-02-01T07:00:50;30.00;99.90
27781;DHT22;15167;1.318;103.762;2023-02-01T07:03:16;30.00;99.90
27781;DHT22;15167;1.318;103.762;2023-02-01T07:05:42;30.10;99.90
27781;DHT22;15167;1.318;103.762;2023-02-01T07:08:08;30.00;99.90
27781;DHT22;15167;1.318;103.762;2023-02-01T07:10:34;30.10;99.90
27781;DHT22;15167;1.318;103.762;2023-02-01T07:13:00;30.20;99.90
27781;DHT22;15167;1.318;103.762;2023-02-01T07:15:26;30.20;99.90
27781;DHT22;15167;1.318;103.762;2023-02-01T07:17:56;30.10;99.90
27781;DHT22;15167;1.318;103.762;2023-02-01T07:20:22;30.00;99.90
27781;DHT22;15167;1.318;103.762;2023-02-01T07:22:48;29.70;99.90
27781;DHT22;15167;1.318;103.762;2023-02-01T07:25:19;29.30;1.00
27781;DHT22;15167;1.318;103.762;2023-02-01T07:27:45;29.20;1.00
27781;DHT22;15167;1.318;103.762;2023-02-01T07:30:12;29.20;1.00
27781;DHT22;15167;1.318;103.762;2023-02-01T07:32:38;29.20;33.40
27781;DHT22;15167;1.318;103.762;2023-02-01T07:35:04;29.20;10.90
27781;DHT22;15167;1.318;103.762;2023-02-01T07:37:30;29.10;1.00
27781;DHT22;15167;1.318;103.762;2023-02-01T07:39:57;29.00;23.50
27781;DHT22;15167;1.318;103.762;2023-02-01T07:42:23;29.00;99.90
27781;DHT22;15167;1.318;103.762;2023-02-01T07:44:49;29.00;99.90
27781;DHT22;15167;1.318;103.762;2023-02-01T07:47:15;29.10;99.90
27781;DHT22;15167;1.318;103.762;2023-02-01T07:49:41;29.00;99.90
27781;DHT22;15167;1.318;103.762;2023-02-01T07:52:08;29.10;99.90
27781;DHT22;15167;1.318;103.762;2023-02-01T07:54:35;29.30;99.90
27781;DHT22;15167;1.318;103.762;2023-02-01T07:57:01;29.40;99.90
27781;DHT22;15167;1.318;103.762;2023-02-01T07:59:27;29.60;99.90
27781;DHT22;15167;1.318;103.762;2023-02-01T08:01:53;29.60;99.90
27781;DHT22;15167;1.318;103.762;2023-02-01T08:04:20;29.60;99.90
27781;DHT22;15167;1.318;103.762;2023-02-01T08:06:46;29.40;99.90
27781;DHT22;15167;1.318;103.762;2023-02-01T08:09:12;29.20;99.90
27781;DHT22;15167;1.318;103.762;2023-02-01T08:11:38;29.20;99.90
27781;DHT22;15167;1.318;103.762;2023-02-01T08:14:04;29.20;99.90
27781;DHT22;15167;1.318;103.762;2023-02-01T08:16:31;29.20;99.90
27781;DHT22;15167;1.318;103.762;2023-02-01T08:18:58;29.20;99.90
27781;DHT22;15167;1.318;103.762;2023-02-01T08:21:26;29.20;99.90
27781;DHT22;15167;1.318;103.762;2023-02-01T08:23:53;28.90;99.90
27781;DHT22;15167;1.318;103.762;2023-02-01T08:26:23;28.80;1.00
27781;DHT22;15167;1.318;103.762;2023-02-01T08:28:53;28.70;1.00
27781;DHT22;15167;1.318;103.762;2023-02-01T08:31:20;28.70;1.00
27781;DHT22;15167;1.318;103.762;2023-02-01T08:33:50;28.70;1.00
27781;DHT22;15167;1.318;103.762;2023-02-01T08:36:17;28.70;1.00
27781;DHT22;15167;1.318;103.762;2023-02-01T08:38:43;28.70;1.00
27781;DHT22;15167;1.318;103.762;2023-02-01T08:41:14;28.70;1.00
27781;DHT22;15167;1.318;103.762;2023-02-01T08:43:40;28.60;1.00
27781;DHT22;15167;1.318;103.762;2023-02-01T08:46:07;28.60;1.00
27781;DHT22;15167;1.318;103.762;2023-02-01T08:48:34;28.60;1.00
27781;DHT22;15167;1.318;103.762;2023-02-01T08:51:01;28.50;1.00
27781;DHT22;15167;1.318;103.762;2023-02-01T08:53:28;28.50;1.00
27781;DHT22;15167;1.318;103.762;2023-02-01T08:55:54;28.50;99.90
27781;DHT22;15167;1.318;103.762;2023-02-01T08:58:20;28.50;99.90
27781;DHT22;15167;1.318;103.762;2023-02-01T09:00:47;28.50;99.90
27781;DHT22;15167;1.318;103.762;2023-02-01T09:03:14;28.60;99.90
27781;DHT22;15167;1.318;103.762;2023-02-01T09:05:41;28.60;99.90
27781;DHT22;15167;1.318;103.762;2023-02-01T09:08:07;28.70;99.90
27781;DHT22;15167;1.318;103.762;2023-02-01T09:10:33;28.70;99.90
27781;DHT22;15167;1.318;103.762;2023-02-01T09:13:00;28.80;99.90
27781;DHT22;15167;1.318;103.762;2023-02-01T09:15:26;28.90;99.90
27781;DHT22;15167;1.318;103.762;2023-02-01T09:17:52;28.90;99.90
27781;DHT22;15167;1.318;103.762;2023-02-01T09:20:18;29.00;99.90
27781;DHT22;15167;1.318;103.762;2023-02-01T09:22:46;28.90;99.90
27781;DHT22;15167;1.318;103.762;2023-02-01T09:25:12;28.70;99.90
27781;DHT22;15167;1.318;103.762;2023-02-01T09:27:38;28.60;1.00
27781;DHT22;15167;1.318;103.762;2023-02-01T09:30:04;28.50;1.00
27781;DHT22;15167;1.318;103.762;2023-02-01T09:32:31;28.50;1.00
27781;DHT22;15167;1.318;103.762;2023-02-01T09:34:57;28.50;1.00
27781;DHT22;15167;1.318;103.762;2023-02-01T09:37:23;28.40;1.00
27781;DHT22;15167;1.318;103.762;2023-02-01T09:39:49;28.40;11.00
27781;DHT22;15167;1.318;103.762;2023-02-01T09:47:43;28.40;11.90
27781;DHT22;15167;1.318;103.762;2023-02-01T09:50:13;28.40;24.60
27781;DHT22;15167;1.318;103.762;2023-02-01T09:52:52;28.40;75.20
27781;DHT22;15167;1.318;103.762;2023-02-01T09:55:21;28.40;64.00
27781;DHT22;15167;1.318;103.762;2023-02-01T09:57:51;28.40;69.90
27781;DHT22;15167;1.318;103.762;2023-02-01T10:00:21;28.40;1.00
27781;DHT22;15167;1.318;103.762;2023-02-01T10:02:49;28.30;45.10
27781;DHT22;15167;1.318;103.762;2023-02-01T10:05:16;28.30;99.80
27781;DHT22;15167;1.318;103.762;2023-02-01T10:10:26;28.20;99.90
27781;DHT22;15167;1.318;103.762;2023-02-01T10:20:42;28.10;99.90
27781;DHT22;15167;1.318;103.762;2023-02-01T10:28:22;28.00;99.90
27781;DHT22;15167;1.318;103.762;2023-02-01T10:30:49;27.90;1.00
27781;DHT22;15167;1.318;103.762;2023-02-01T10:35:44;27.80;1.00
27781;DHT22;15167;1.318;103.762;2023-02-01T10:38:20;27.80;1.00
27781;DHT22;15167;1.318;103.762;2023-02-01T10:40:50;27.80;1.00
27781;DHT22;15167;1.318;103.762;2023-02-01T10:43:17;27.70;1.00
27781;DHT22;15167;1.318;103.762;2023-02-01T10:45:43;27.60;1.00
27781;DHT22;15167;1.318;103.762;2023-02-01T10:48:09;27.60;12.20
27781;DHT22;15167;1.318;103.762;2023-02-01T10:55:51;27.60;26.50
27781;DHT22;15167;1.318;103.762;2023-02-01T10:58:19;27.60;28.50
27781;DHT22;15167;1.318;103.762;2023-02-01T11:00:49;27.50;38.40
27781;DHT22;15167;1.318;103.762;2023-02-01T11:04:01;27.50;41.00
27781;DHT22;15167;1.318;103.762;2023-02-01T11:06:24;27.50;41.00
27781;DHT22;15167;1.318;103.762;2023-02-01T11:08:52;27.60;42.90
27781;DHT22;15167;1.318;103.762;2023-02-01T11:11:19;27.50;59.10
27781;DHT22;15167;1.318;103.762;2023-02-01T11:13:51;27.50;82.70
27781;DHT22;15167;1.318;103.762;2023-02-01T11:16:17;27.40;91.90
27781;DHT22;15167;1.318;103.762;2023-02-01T11:18:44;27.40;68.60
27781;DHT22;15167;1.318;103.762;2023-02-01T11:21:10;27.30;78.80
27781;DHT22;15167;1.318;103.762;2023-02-01T11:23:44;27.30;91.30
27781;DHT22;15167;1.318;103.762;2023-02-01T11:26:12;27.30;1.00
27781;DHT22;15167;1.318;103.762;2023-02-01T11:28:39;27.30;1.00
27781;DHT22;15167;1.318;103.762;2023-02-01T11:31:08;27.30;49.50
27781;DHT22;15167;1.318;103.762;2023-02-01T11:33:35;27.30;78.10
27781;DHT22;15167;1.318;103.762;2023-02-01T11:36:11;27.20;87.90
27781;DHT22;15167;1.318;103.762;2023-02-01T11:38:39;27.20;99.90
27781;DHT22;15167;1.318;103.762;2023-02-01T11:41:16;27.20;99.90
27781;DHT22;15167;1.318;103.762;2023-02-01T11:44:18;27.20;99.90
27781;DHT22;15167;1.318;103.762;2023-02-01T11:46:35;27.20;99.90
27781;DHT22;15167;1.318;103.762;2023-02-01T11:49:20;27.20;99.90
27781;DHT22;15167;1.318;103.762;2023-02-01T12:01:43;27.20;99.90
27781;DHT22;15167;1.318;103.762;2023-02-01T12:29:45;27.20;1.00
27781;DHT22;15167;1.318;103.762;2023-02-01T12:32:17;27.10;1.00
27781;DHT22;15167;1.318;103.762;2023-02-01T12:39:47;26.90;1.00
27781;DHT22;15167;1.318;103.762;2023-02-01T12:42:29;26.90;1.00
27781;DHT22;15167;1.318;103.762;2023-02-01T12:45:10;26.80;1.00
27781;DHT22;15167;1.318;103.762;2023-02-01T12:50:08;26.80;1.00
27781;DHT22;15167;1.318;103.762;2023-02-01T12:52:48;26.80;1.00
27781;DHT22;15167;1.318;103.762;2023-02-01T13:00:39;26.80;99.90
27781;DHT22;15167;1.318;103.762;2023-02-01T13:05:50;26.80;99.90
27781;DHT22;15167;1.318;103.762;2023-02-01T13:11:20;26.70;99.90
27781;DHT22;15167;1.318;103.762;2023-02-01T13:13:59;26.70;99.90
27781;DHT22;15167;1.318;103.762;2023-02-01T13:16:28;26.70;99.90
27781;DHT22;15167;1.318;103.762;2023-02-01T13:19:42;26.70;99.90
27781;DHT22;15167;1.318;103.762;2023-02-01T13:21:43;26.60;99.90
27781;DHT22;15167;1.318;103.762;2023-02-01T13:26:47;26.50;1.00
27781;DHT22;15167;1.318;103.762;2023-02-01T13:29:13;26.50;1.00
27781;DHT22;15167;1.318;103.762;2023-02-01T13:37:02;26.50;99.90
27781;DHT22;15167;1.318;103.762;2023-02-01T13:44:30;26.40;1.00
27781;DHT22;15167;1.318;103.762;2023-02-01T13:46:59;26.40;1.00
27781;DHT22;15167;1.318;103.762;2023-02-01T13:49:27;26.50;1.00
27781;DHT22;15167;1.318;103.762;2023-02-01T13:51:57;26.50;1.00
27781;DHT22;15167;1.318;103.762;2023-02-01T13:56:56;26.50;1.00
27781;DHT22;15167;1.318;103.762;2023-02-01T13:59:47;26.60;1.00
27781;DHT22;15167;1.318;103.762;2023-02-01T14:04:58;26.60;1.00
27781;DHT22;15167;1.318;103.762;2023-02-01T14:07:26;26.60;1.00
27781;DHT22;15167;1.318;103.762;2023-02-01T14:09:52;26.60;1.00
27781;DHT22;15167;1.318;103.762;2023-02-01T14:17:48;26.50;1.00
27781;DHT22;15167;1.318;103.762;2023-02-01T14:23:02;26.40;1.00
27781;DHT22;15167;1.318;103.762;2023-02-01T14:25:32;26.30;1.00
27781;DHT22;15167;1.318;103.762;2023-02-01T14:28:01;26.30;7.50
27781;DHT22;15167;1.318;103.762;2023-02-01T14:30:27;26.20;34.30
27781;DHT22;15167;1.318;103.762;2023-02-01T14:32:53;26.30;68.90
27781;DHT22;15167;1.318;103.762;2023-02-01T14:35:20;26.30;64.10
27781;DHT22;15167;1.318;103.762;2023-02-01T14:37:47;26.30;56.30
27781;DHT22;15167;1.318;103.762;2023-02-01T14:40:19;26.20;74.80
27781;DHT22;15167;1.318;103.762;2023-02-01T14:42:46;26.30;83.70
27781;DHT22;15167;1.318;103.762;2023-02-01T14:47:55;26.30;93.50
27781;DHT22;15167;1.318;103.762;2023-02-01T14:50:30;26.20;99.90
27781;DHT22;15167;1.318;103.762;2023-02-01T14:55:49;26.10;99.90
27781;DHT22;15167;1.318;103.762;2023-02-01T15:01:03;26.00;99.90
27781;DHT22;15167;1.318;103.762;2023-02-01T15:06:12;26.00;99.90
27781;DHT22;15167;1.318;103.762;2023-02-01T15:08:42;26.00;99.90
27781;DHT22;15167;1.318;103.762;2023-02-01T15:11:10;26.00;99.90
27781;DHT22;15167;1.318;103.762;2023-02-01T15:13:38;26.00;99.90
27781;DHT22;15167;1.318;103.762;2023-02-01T15:16:11;26.00;99.90
27781;DHT22;15167;1.318;103.762;2023-02-01T15:18:38;25.90;99.90
27781;DHT22;15167;1.318;103.762;2023-02-01T15:21:04;25.90;99.90
27781;DHT22;15167;1.318;103.762;2023-02-01T15:23:31;26.00;99.90
27781;DHT22;15167;1.318;103.762;2023-02-01T15:25:57;26.00;99.90
27781;DHT22;15167;1.318;103.762;2023-02-01T15:28:25;25.90;99.90
27781;DHT22;15167;1.318;103.762;2023-02-01T15:30:53;26.00;99.90
27781;DHT22;15167;1.318;103.762;2023-02-01T15:33:19;26.00;99.90
27781;DHT22;15167;1.318;103.762;2023-02-01T15:35:47;26.00;99.90
27781;DHT22;15167;1.318;103.762;2023-02-01T15:41:01;25.90;99.90
27781;DHT22;15167;1.318;103.762;2023-02-01T15:43:29;25.90;99.90
27781;DHT22;15167;1.318;103.762;2023-02-01T15:45:59;25.80;99.90
27781;DHT22;15167;1.318;103.762;2023-02-01T15:48:34;25.80;99.90
27781;DHT22;15167;1.318;103.762;2023-02-01T15:51:01;25.80;99.90
27781;DHT22;15167;1.318;103.762;2023-02-01T15:53:27;25.80;99.90
27781;DHT22;15167;1.318;103.762;2023-02-01T15:55:58;25.80;99.90
27781;DHT22;15167;1.318;103.762;2023-02-01T15:58:25;25.80;99.90
27781;DHT22;15167;1.318;103.762;2023-02-01T16:00:59;25.80;99.90
27781;DHT22;15167;1.318;103.762;2023-02-01T16:03:37;25.80;99.90
27781;DHT22;15167;1.318;103.762;2023-02-01T16:08:54;25.80;99.90
27781;DHT22;15167;1.318;103.762;2023-02-01T16:11:22;25.80;99.90
27781;DHT22;15167;1.318;103.762;2023-02-01T16:13:49;25.80;99.90
27781;DHT22;15167;1.318;103.762;2023-02-01T16:16:15;25.80;99.90
27781;DHT22;15167;1.318;103.762;2023-02-01T16:18:41;25.70;99.90
27781;DHT22;15167;1.318;103.762;2023-02-01T16:21:07;25.70;99.90
27781;DHT22;15167;1.318;103.762;2023-02-01T16:23:34;25.80;99.90
27781;DHT22;15167;1.318;103.762;2023-02-01T16:26:01;25.70;99.90
27781;DHT22;15167;1.318;103.762;2023-02-01T16:28:27;25.70;99.90
27781;DHT22;15167;1.318;103.762;2023-02-01T16:30:53;25.70;99.90
27781;DHT22;15167;1.318;103.762;2023-02-01T16:33:19;25.60;99.90
27781;DHT22;15167;1.318;103.762;2023-02-01T16:35:47;25.60;99.90
27781;DHT22;15167;1.318;103.762;2023-02-01T16:38:14;25.60;99.90
27781;DHT22;15167;1.318;103.762;2023-02-01T16:40:42;25.60;99.90
27781;DHT22;15167;1.318;103.762;2023-02-01T16:43:12;25.60;99.90
27781;DHT22;15167;1.318;103.762;2023-02-01T16:45:39;25.60;99.90
27781;DHT22;15167;1.318;103.762;2023-02-01T16:48:05;25.60;99.90
27781;DHT22;15167;1.318;103.762;2023-02-01T16:50:32;25.60;99.90
27781;DHT22;15167;1.318;103.762;2023-02-01T16:52:59;25.50;99.90
27781;DHT22;15167;1.318;103.762;2023-02-01T16:55:26;25.50;99.90
27781;DHT22;15167;1.318;103.762;2023-02-01T16:57:53;25.60;99.90
27781;DHT22;15167;1.318;103.762;2023-02-01T17:00:19;25.60;99.90
27781;DHT22;15167;1.318;103.762;2023-02-01T17:02:45;25.60;99.90
27781;DHT22;15167;1.318;103.762;2023-02-01T17:05:11;25.50;99.90
27781;DHT22;15167;1.318;103.762;2023-02-01T17:07:38;25.50;99.90
27781;DHT22;15167;1.318;103.762;2023-02-01T17:10:05;25.50;99.90
27781;DHT22;15167;1.318;103.762;2023-02-01T17:12:32;25.50;99.90
27781;DHT22;15167;1.318;103.762;2023-02-01T17:14:58;25.50;99.90
27781;DHT22;15167;1.318;103.762;2023-02-01T17:17:30;25.50;99.90
27781;DHT22;15167;1.318;103.762;2023-02-01T17:19:58;25.50;99.90
27781;DHT22;15167;1.318;103.762;2023-02-01T17:22:24;25.60;99.90
27781;DHT22;15167;1.318;103.762;2023-02-01T17:24:50;25.60;99.90
27781;DHT22;15167;1.318;103.762;2023-02-01T17:27:16;25.60;99.90
27781;DHT22;15167;1.318;103.762;2023-02-01T17:29:43;25.60;99.90
27781;DHT22;15167;1.318;103.762;2023-02-01T17:32:13;25.60;99.90
27781;DHT22;15167;1.318;103.762;2023-02-01T17:34:41;25.50;99.90
27781;DHT22;15167;1.318;103.762;2023-02-01T17:37:09;25.50;99.90
27781;DHT22;15167;1.318;103.762;2023-02-01T17:39:41;25.50;99.90
27781;DHT22;15167;1.318;103.762;2023-02-01T17:42:19;25.50;99.90
27781;DHT22;15167;1.318;103.762;2023-02-01T17:44:45;25.40;99.90
27781;DHT22;15167;1.318;103.762;2023-02-01T17:47:11;25.30;99.90
27781;DHT22;15167;1.318;103.762;2023-02-01T17:49:37;25.40;99.90
27781;DHT22;15167;1.318;103.762;2023-02-01T17:52:04;25.30;99.90
27781;DHT22;15167;1.318;103.762;2023-02-01T17:54:30;25.30;99.90